createdAt,value
2023-05-06T00:19:21.783Z,13.80
2023-05-06T00:53:26.429Z,13.40
2023-05-06T01:13:48.444Z,13.10
2023-05-06T01:47:54.070Z,12.70
2023-05-06T01:54:32.601Z,12.60
2023-05-06T02:01:11.551Z,12.50
2023-05-06T02:21:38.481Z,12.30
2023-05-06T02:25:07.166Z,12.20
2023-05-06T02:41:49.221Z,12.10
2023-05-06T02:51:40.353Z,11.80
2023-05-06T03:05:12.107Z,11.40
2023-05-06T03:08:24.476Z,11.40
2023-05-06T03:11:36.368Z,11.40
2023-05-06T03:26:25.300Z,11.30
2023-05-06T03:28:55.859Z,11.20
2023-05-06T03:54:40.773Z,10.10
2023-05-06T03:57:39.900Z,10.30
2023-05-06T04:27:36.155Z,10.10
2023-05-06T04:43:21.441Z,10.30
2023-05-06T04:46:10.736Z,10.60
2023-05-06T04:48:59.727Z,10.60
2023-05-06T04:54:57.860Z,10.80
2023-05-06T04:57:26.548Z,11.10
2023-05-06T05:10:57.073Z,11.40
2023-05-06T05:24:29.600Z,11.80
2023-05-06T05:30:21.363Z,12.10
2023-05-06T06:32:36.391Z,14.10
2023-05-06T06:38:31.539Z,14.50
2023-05-06T06:40:59.703Z,14.60
2023-05-06T06:43:27.649Z,14.70
2023-05-06T06:45:59.524Z,14.80
2023-05-06T06:48:27.960Z,14.80
2023-05-06T06:50:55.912Z,14.90
2023-05-06T06:53:24.126Z,14.90
2023-05-06T06:55:54.158Z,14.90
2023-05-06T06:58:25.442Z,15.10
2023-05-06T07:00:53.949Z,15.00
2023-05-06T07:03:21.950Z,14.90
2023-05-06T07:05:51.081Z,15.00
2023-05-06T07:08:22.387Z,15.00
2023-05-06T07:10:50.614Z,15.20
2023-05-06T07:13:20.710Z,15.30
2023-05-06T07:15:49.921Z,15.50
2023-05-06T07:18:18.016Z,15.80
2023-05-06T07:20:46.424Z,15.80
2023-05-06T07:23:15.046Z,16.00
2023-05-06T07:25:43.434Z,16.00
2023-05-06T07:28:11.594Z,16.00
2023-05-06T07:30:41.267Z,15.90
2023-05-06T07:33:09.750Z,15.70
2023-05-06T07:35:39.508Z,15.70
2023-05-06T07:38:15.594Z,15.70
2023-05-06T07:40:44.762Z,16.00
2023-05-06T07:43:12.775Z,16.00
2023-05-06T07:45:42.294Z,16.00
2023-05-06T07:48:10.573Z,16.00
2023-05-06T07:51:45.298Z,15.90
2023-05-06T07:54:13.570Z,16.10
2023-05-06T07:56:41.652Z,16.30
2023-05-06T07:59:09.772Z,16.50
2023-05-06T08:01:37.825Z,16.70
2023-05-06T08:04:06.258Z,16.70
2023-05-06T08:06:34.395Z,17.10
2023-05-06T08:09:04.084Z,17.00
2023-05-06T08:11:32.612Z,17.00
2023-05-06T08:14:00.857Z,17.10
2023-05-06T08:16:28.974Z,17.00
2023-05-06T08:18:57.016Z,17.40
2023-05-06T08:21:25.096Z,17.50
2023-05-06T08:23:53.238Z,17.40
2023-05-06T08:26:22.593Z,17.50
2023-05-06T08:28:50.557Z,17.60
2023-05-06T08:31:18.615Z,17.80
2023-05-06T08:33:46.705Z,17.80
2023-05-06T08:36:14.901Z,17.70
2023-05-06T08:38:48.973Z,18.10
2023-05-06T08:41:19.606Z,18.40
2023-05-06T08:43:50.402Z,18.10
2023-05-06T08:46:19.080Z,18.10
2023-05-06T08:48:47.369Z,18.20
2023-05-06T08:51:16.327Z,18.30
2023-05-06T08:53:49.148Z,18.50
2023-05-06T08:56:17.636Z,18.40
2023-05-06T08:58:49.045Z,18.30
2023-05-06T09:01:19.237Z,18.30
2023-05-06T09:03:49.060Z,18.60
2023-05-06T09:06:17.155Z,18.50
2023-05-06T09:08:47.286Z,18.90
2023-05-06T09:11:23.675Z,18.60
2023-05-06T09:14:10.432Z,18.80
2023-05-06T09:16:39.438Z,18.60
2023-05-06T09:19:10.089Z,18.80
2023-05-06T09:21:42.064Z,18.70
2023-05-06T09:24:15.922Z,18.90
2023-05-06T09:26:48.488Z,18.90
2023-05-06T09:29:17.980Z,18.80
2023-05-06T09:31:47.832Z,19.20
2023-05-06T09:34:17.569Z,19.30
2023-05-06T09:36:45.606Z,19.50
2023-05-06T09:39:15.784Z,19.60
2023-05-06T09:41:45.892Z,19.50
2023-05-06T09:44:19.684Z,19.60
2023-05-06T09:46:47.835Z,19.50
2023-05-06T09:49:16.398Z,19.50
2023-05-06T09:51:47.869Z,19.40
2023-05-06T09:54:18.506Z,19.70
2023-05-06T09:56:47.693Z,19.80
2023-05-06T09:59:18.591Z,19.50
2023-05-06T10:01:47.127Z,19.60
2023-05-06T10:04:16.754Z,19.80
2023-05-06T10:06:48.956Z,20.10
2023-05-06T10:09:17.526Z,20.30
2023-05-06T10:11:46.587Z,20.40
2023-05-06T10:14:14.766Z,20.50
2023-05-06T10:16:44.694Z,20.40
2023-05-06T10:19:15.794Z,20.40
2023-05-06T10:21:56.200Z,20.90
2023-05-06T10:24:32.669Z,21.30
2023-05-06T10:27:06.604Z,21.40
2023-05-06T10:29:38.239Z,21.30
2023-05-06T10:32:10.984Z,21.30
2023-05-06T10:34:48.594Z,21.40
2023-05-06T10:37:17.163Z,21.60
2023-05-06T10:39:46.554Z,21.00
2023-05-06T10:42:18.512Z,21.00
2023-05-06T10:45:00.721Z,21.20
2023-05-06T10:47:30.330Z,21.00
2023-05-06T10:50:21.398Z,20.60
2023-05-06T10:52:51.843Z,20.50
2023-05-06T10:55:27.599Z,21.00
2023-05-06T10:57:57.004Z,20.80
2023-05-06T11:00:25.129Z,20.80
2023-05-06T11:02:58.578Z,21.10
2023-05-06T11:05:26.819Z,21.70
2023-05-06T11:08:08.788Z,21.80
2023-05-06T11:10:36.931Z,21.60
2023-05-06T11:13:21.558Z,21.80
2023-05-06T11:15:52.322Z,22.20
2023-05-06T11:18:56.280Z,21.90
2023-05-06T11:21:40.165Z,21.40
2023-05-06T11:24:12.461Z,21.70
2023-05-06T11:26:44.197Z,22.70
2023-05-06T11:29:17.233Z,22.50
2023-05-06T11:31:46.016Z,21.70
2023-05-06T11:34:23.942Z,21.70
2023-05-06T11:37:02.497Z,21.80
2023-05-06T11:39:38.735Z,21.60
2023-05-06T11:42:09.106Z,21.70
2023-05-06T11:44:38.638Z,21.50
2023-05-06T11:47:08.301Z,21.50
2023-05-06T11:49:39.078Z,21.70
2023-05-06T11:52:07.422Z,21.60
2023-05-06T11:54:36.715Z,21.80
2023-05-06T11:57:05.111Z,22.10
2023-05-06T11:59:35.646Z,21.70
2023-05-06T12:02:05.756Z,21.40
2023-05-06T12:04:41.291Z,21.10
2023-05-06T12:07:10.696Z,21.10
2023-05-06T12:09:40.564Z,21.30
2023-05-06T12:12:11.125Z,21.60
2023-05-06T12:14:39.808Z,21.80
2023-05-06T12:17:08.186Z,21.50
2023-05-06T12:19:36.658Z,21.30
2023-05-06T12:22:19.521Z,21.30
2023-05-06T12:24:48.035Z,20.80
2023-05-06T12:27:16.365Z,20.60
2023-05-06T12:29:53.847Z,20.50
2023-05-06T12:32:21.870Z,20.60
2023-05-06T12:34:49.779Z,20.90
2023-05-06T12:37:28.620Z,20.80
2023-05-06T12:39:59.213Z,21.10
2023-05-06T12:42:28.173Z,20.90
2023-05-06T12:44:57.342Z,20.90
2023-05-06T12:47:26.878Z,21.20
2023-05-06T12:49:58.135Z,21.20
2023-05-06T12:52:29.976Z,21.30
2023-05-06T12:54:58.745Z,20.90
2023-05-06T12:57:27.010Z,21.00
2023-05-06T12:59:56.312Z,21.10
2023-05-06T13:02:24.631Z,21.20
2023-05-06T13:04:52.630Z,21.10
2023-05-06T13:07:22.156Z,20.90
2023-05-06T13:09:51.578Z,21.30
2023-05-06T13:12:21.245Z,21.30
2023-05-06T13:14:49.353Z,21.40
2023-05-06T13:17:17.618Z,21.40
2023-05-06T13:19:46.306Z,21.30
2023-05-06T13:22:14.441Z,21.40
2023-05-06T13:24:42.454Z,21.10
2023-05-06T13:27:12.053Z,21.00
2023-05-06T13:29:40.546Z,20.90
2023-05-06T13:32:09.036Z,21.10
2023-05-06T13:34:40.923Z,21.30
2023-05-06T13:37:08.952Z,21.30
2023-05-06T13:39:38.967Z,21.30
2023-05-06T13:42:08.343Z,21.40
2023-05-06T13:44:37.962Z,21.60
2023-05-06T13:47:07.941Z,21.80
2023-05-06T13:49:37.874Z,21.90
2023-05-06T13:52:08.199Z,21.80
2023-05-06T13:54:36.559Z,21.90
2023-05-06T13:57:07.694Z,21.80
2023-05-06T13:59:37.049Z,21.70
2023-05-06T14:02:08.150Z,21.80
2023-05-06T14:04:37.574Z,22.00
2023-05-06T14:07:05.635Z,21.80
2023-05-06T14:09:33.869Z,21.90
2023-05-06T14:12:02.859Z,21.90
2023-05-06T14:14:33.692Z,21.80
2023-05-06T14:17:08.667Z,21.80
2023-05-06T14:19:36.759Z,21.90
2023-05-06T14:22:04.792Z,21.90
2023-05-06T14:24:32.938Z,21.60
2023-05-06T14:27:04.147Z,21.50
2023-05-06T14:29:32.146Z,21.40
2023-05-06T14:32:00.471Z,21.50
2023-05-06T14:34:29.834Z,21.40
2023-05-06T14:36:59.395Z,21.40
2023-05-06T14:39:30.429Z,21.30
2023-05-06T14:42:00.293Z,21.30
2023-05-06T14:44:29.898Z,21.30
2023-05-06T14:46:57.927Z,21.40
2023-05-06T14:49:25.883Z,21.30
2023-05-06T14:51:55.321Z,21.30
2023-05-06T14:54:26.780Z,21.00
2023-05-06T14:57:01.299Z,20.80
2023-05-06T14:59:29.513Z,20.30
2023-05-06T15:01:58.783Z,20.40
2023-05-06T15:04:27.337Z,20.40
2023-05-06T15:06:57.610Z,20.30
2023-05-06T15:09:25.668Z,20.10
2023-05-06T15:11:55.641Z,20.30
2023-05-06T15:14:25.822Z,20.40
2023-05-06T15:16:55.934Z,20.40
2023-05-06T15:19:23.957Z,20.50
2023-05-06T15:21:51.986Z,20.60
2023-05-06T15:24:21.301Z,20.50
2023-05-06T15:26:49.283Z,20.70
2023-05-06T15:29:18.060Z,20.80
2023-05-06T15:31:46.346Z,20.80
2023-05-06T15:34:14.689Z,20.80
2023-05-06T15:36:42.922Z,20.90
2023-05-06T15:39:11.080Z,20.90
2023-05-06T15:41:40.423Z,21.00
2023-05-06T15:44:12.240Z,20.90
2023-05-06T15:46:42.226Z,20.70
2023-05-06T15:49:42.582Z,20.80
2023-05-06T15:52:03.060Z,20.90
2023-05-06T15:54:36.157Z,20.90
2023-05-06T15:57:07.103Z,20.80
2023-05-06T15:59:35.371Z,20.60
2023-05-06T16:04:37.860Z,20.60
2023-05-06T16:07:06.123Z,20.50
2023-05-06T16:09:34.084Z,20.50
2023-05-06T16:12:02.037Z,20.50
2023-05-06T16:14:31.725Z,20.30
2023-05-06T16:17:01.356Z,20.20
2023-05-06T16:19:30.250Z,20.20
2023-05-06T16:21:59.768Z,20.30
2023-05-06T16:24:30.830Z,20.30
2023-05-06T16:26:58.881Z,20.20
2023-05-06T16:29:27.441Z,20.20
2023-05-06T16:31:57.097Z,20.20
2023-05-06T16:34:27.457Z,20.20
2023-05-06T16:36:55.340Z,20.10
2023-05-06T16:39:23.350Z,20.10
2023-05-06T16:41:51.476Z,20.10
2023-05-06T16:44:23.986Z,20.10
2023-05-06T16:46:53.646Z,20.20
2023-05-06T16:49:22.991Z,20.20
2023-05-06T16:51:51.225Z,20.10
2023-05-06T16:54:22.234Z,20.00
2023-05-06T16:56:52.681Z,20.00
2023-05-06T16:59:22.464Z,20.00
2023-05-06T17:01:50.880Z,20.00
2023-05-06T17:04:18.868Z,19.90
2023-05-06T17:06:49.241Z,19.90
2023-05-06T17:09:17.404Z,19.70
2023-05-06T17:11:45.676Z,19.80
2023-05-06T17:14:13.918Z,19.90
2023-05-06T17:16:43.132Z,19.80
2023-05-06T17:19:11.881Z,19.80
2023-05-06T17:21:40.981Z,19.80
2023-05-06T17:24:10.647Z,19.70
2023-05-06T17:26:40.220Z,19.60
2023-05-06T17:29:08.808Z,19.60
2023-05-06T17:31:36.729Z,19.50
2023-05-06T17:34:04.794Z,19.40
2023-05-06T17:36:32.803Z,19.30
2023-05-06T17:39:04.871Z,19.20
2023-05-06T17:41:34.402Z,19.10
2023-05-06T17:44:02.451Z,19.10
2023-05-06T17:46:31.199Z,19.00
2023-05-06T17:48:59.251Z,19.00
2023-05-06T17:51:33.123Z,18.90
2023-05-06T17:54:01.147Z,18.80
2023-05-06T17:56:29.126Z,18.80
2023-05-06T17:59:02.455Z,18.80
2023-05-06T18:01:31.062Z,18.70
2023-05-06T18:03:59.778Z,18.60
2023-05-06T18:06:28.947Z,18.60
2023-05-06T18:08:56.913Z,18.50
2023-05-06T18:11:25.661Z,18.50
2023-05-06T18:13:55.216Z,18.40
2023-05-06T18:16:25.018Z,18.50
2023-05-06T18:18:53.403Z,18.40
2023-05-06T18:21:22.319Z,18.40
2023-05-06T18:23:55.712Z,18.30
2023-05-06T18:26:43.341Z,18.30
2023-05-06T18:29:12.612Z,18.20
2023-05-06T18:31:41.994Z,18.10
2023-05-06T18:34:10.127Z,18.10
2023-05-06T18:36:38.062Z,18.00
2023-05-06T18:39:06.232Z,17.90
2023-05-06T18:41:37.358Z,17.90
2023-05-06T18:44:17.218Z,17.90
2023-05-06T18:46:46.825Z,17.80
2023-05-06T18:49:15.146Z,17.70
2023-05-06T18:51:43.102Z,17.60
2023-05-06T18:54:13.424Z,17.50
2023-05-06T18:59:11.315Z,17.30
2023-05-06T19:01:39.666Z,17.30
2023-05-06T19:04:09.138Z,17.10
2023-05-06T19:06:38.466Z,17.00
2023-05-06T19:09:07.084Z,16.90
2023-05-06T19:11:35.405Z,16.90
2023-05-06T19:14:03.574Z,16.80
2023-05-06T19:16:31.679Z,16.80
2023-05-06T19:19:07.040Z,16.80
2023-05-06T19:21:38.388Z,16.70
2023-05-06T19:24:06.810Z,16.70
2023-05-06T19:26:38.754Z,16.70
2023-05-06T19:29:06.919Z,16.70
2023-05-06T19:31:35.438Z,16.70
2023-05-06T19:34:03.762Z,16.60
2023-05-06T19:36:31.817Z,16.60
2023-05-06T19:39:01.382Z,16.70
2023-05-06T19:41:29.333Z,16.70
2023-05-06T19:43:57.480Z,16.60
2023-05-06T19:46:25.572Z,16.60
2023-05-06T19:48:53.625Z,16.60
2023-05-06T19:51:21.710Z,16.60
2023-05-06T19:53:50.006Z,16.50
2023-05-06T19:56:29.544Z,16.60
2023-05-06T19:58:57.940Z,16.50
2023-05-06T20:01:27.188Z,16.60
2023-05-06T20:03:56.163Z,16.60
2023-05-06T20:06:24.434Z,16.60
2023-05-06T20:08:52.488Z,16.60
2023-05-06T20:11:26.068Z,16.60
2023-05-06T20:13:54.059Z,16.60
2023-05-06T20:16:22.358Z,16.60
2023-05-06T20:18:51.532Z,16.60
2023-05-06T20:21:20.109Z,16.60
2023-05-06T20:23:48.486Z,16.60
2023-05-06T20:26:16.434Z,16.60
2023-05-06T20:28:45.736Z,16.60
2023-05-06T20:31:13.701Z,16.60
2023-05-06T20:33:42.387Z,16.60
2023-05-06T20:36:10.447Z,16.60
2023-05-06T20:38:38.387Z,16.60
2023-05-06T20:41:06.357Z,16.50
2023-05-06T20:43:35.205Z,16.60
2023-05-06T20:46:07.184Z,16.60
2023-05-06T20:48:35.233Z,16.60
2023-05-06T20:51:03.241Z,16.60
2023-05-06T20:53:31.271Z,16.60
2023-05-06T20:56:01.052Z,16.60
2023-05-06T20:58:29.338Z,16.60
2023-05-06T21:00:58.485Z,16.60
2023-05-06T21:03:27.944Z,16.60
2023-05-06T21:05:56.178Z,16.60
2023-05-06T21:08:24.286Z,16.60
2023-05-06T21:10:52.240Z,16.60
2023-05-06T21:13:20.647Z,16.50
2023-05-06T21:15:48.754Z,16.50
2023-05-06T21:18:17.312Z,16.50
2023-05-06T21:20:46.654Z,16.50
2023-05-06T21:23:14.616Z,16.50
2023-05-06T21:25:42.820Z,16.40
2023-05-06T21:28:11.079Z,16.40
2023-05-06T21:30:39.762Z,16.30
2023-05-06T21:33:11.125Z,16.30
2023-05-06T21:35:39.264Z,16.20
2023-05-06T21:38:08.510Z,16.20
2023-05-06T21:40:39.498Z,16.20
2023-05-06T21:43:07.501Z,16.20
2023-05-06T21:45:35.416Z,16.30
2023-05-06T21:48:03.442Z,16.30
2023-05-06T21:50:31.435Z,16.30
2023-05-06T21:52:59.502Z,16.30
2023-05-06T21:55:28.808Z,16.20
2023-05-06T21:57:56.823Z,16.10
2023-05-06T22:00:24.957Z,16.00
2023-05-06T22:02:53.482Z,16.00
2023-05-06T22:05:21.803Z,16.20
2023-05-06T22:07:49.878Z,16.20
2023-05-06T22:10:18.028Z,16.20
2023-05-06T22:12:47.372Z,16.20
2023-05-06T22:15:15.620Z,16.10
2023-05-06T22:17:43.671Z,15.90
2023-05-06T22:20:12.495Z,15.90
2023-05-06T22:22:40.700Z,15.90
2023-05-06T22:25:09.505Z,16.10
2023-05-06T22:27:38.078Z,16.00
2023-05-06T22:30:08.901Z,16.10
2023-05-06T22:32:37.024Z,15.90
2023-05-06T22:35:05.654Z,15.80
2023-05-06T22:37:33.567Z,15.90
2023-05-06T22:40:01.497Z,16.00
2023-05-06T22:42:29.436Z,16.00
2023-05-06T22:44:57.353Z,16.00
2023-05-06T22:47:26.685Z,16.00
2023-05-06T22:49:54.669Z,16.00
2023-05-06T22:52:22.679Z,15.90
2023-05-06T22:54:50.806Z,15.80
2023-05-06T22:57:22.793Z,15.80
2023-05-06T22:59:50.824Z,15.70
2023-05-06T23:02:18.823Z,15.60
2023-05-06T23:04:48.173Z,15.60
2023-05-06T23:07:16.880Z,15.60
2023-05-06T23:09:44.764Z,15.60
2023-05-06T23:12:12.689Z,15.50
2023-05-06T23:14:40.809Z,15.40
2023-05-06T23:17:08.810Z,15.40
2023-05-06T23:19:36.851Z,15.40
2023-05-06T23:22:06.126Z,15.30
2023-05-06T23:24:34.141Z,15.30
2023-05-06T23:27:02.395Z,15.30
2023-05-06T23:29:30.331Z,15.20
2023-05-06T23:31:58.291Z,15.20
2023-05-06T23:34:27.364Z,15.10
2023-05-06T23:36:56.537Z,15.00
2023-05-06T23:39:26.347Z,15.00
2023-05-06T23:41:54.280Z,15.00
2023-05-06T23:44:22.534Z,15.00
2023-05-06T23:46:50.678Z,14.90
2023-05-06T23:49:18.655Z,14.90
2023-05-06T23:51:46.551Z,14.90
2023-05-06T23:54:14.554Z,14.90
2023-05-06T23:56:43.857Z,14.90
2023-05-06T23:59:12.282Z,14.90
